sensor_id;sensor_type;location;lat;lon;timestamp;temperature;humidity
7814;DHT22;3952;48.364;16.022;2023-09-19T00:01:39;20.20;99.90
7814;DHT22;3952;48.364;16.022;2023-09-19T00:04:08;20.20;99.90
7814;DHT22;3952;48.364;16.022;2023-09-19T00:06:38;21.20;99.90
7814;DHT22;3952;48.364;16.022;2023-09-19T00:09:05;20.10;99.90
7814;DHT22;3952;48.364;16.022;2023-09-19T00:11:36;20.10;99.90
7814;DHT22;3952;48.364;16.022;2023-09-19T00:14:03;20.00;99.90
7814;DHT22;3952;48.364;16.022;2023-09-19T00:16:34;20.00;99.90
7814;DHT22;3952;48.364;16.022;2023-09-19T00:19:02;19.90;99.90
7814;DHT22;3952;48.364;16.022;2023-09-19T00:21:33;19.90;99.90
7814;DHT22;3952;48.364;16.022;2023-09-19T00:24:01;19.80;99.90
7814;DHT22;3952;48.364;16.022;2023-09-19T00:26:28;19.80;99.90
7814;DHT22;3952;48.364;16.022;2023-09-19T00:28:56;19.70;99.90
7814;DHT22;3952;48.364;16.022;2023-09-19T00:31:34;19.70;99.90
7814;DHT22;3952;48.364;16.022;2023-09-19T00:34:03;19.50;99.90
7814;DHT22;3952;48.364;16.022;2023-09-19T00:36:33;19.50;99.90
7814;DHT22;3952;48.364;16.022;2023-09-19T00:39:00;19.40;99.90
7814;DHT22;3952;48.364;16.022;2023-09-19T00:41:28;19.30;99.90
7814;DHT22;3952;48.364;16.022;2023-09-19T00:43:56;19.20;99.90
7814;DHT22;3952;48.364;16.022;2023-09-19T00:46:24;19.10;99.90
7814;DHT22;3952;48.364;16.022;2023-09-19T00:48:51;19.10;99.90
7814;DHT22;3952;48.364;16.022;2023-09-19T00:51:20;19.00;99.90
7814;DHT22;3952;48.364;16.022;2023-09-19T00:53:50;18.90;99.90
7814;DHT22;3952;48.364;16.022;2023-09-19T00:56:19;18.90;99.90
7814;DHT22;3952;48.364;16.022;2023-09-19T00:58:46;18.80;99.90
7814;DHT22;3952;48.364;16.022;2023-09-19T01:01:14;18.80;99.90
7814;DHT22;3952;48.364;16.022;2023-09-19T01:03:41;18.80;99.90
7814;DHT22;3952;48.364;16.022;2023-09-19T01:06:09;18.80;99.90
7814;DHT22;3952;48.364;16.022;2023-09-19T01:08:36;18.80;99.90
7814;DHT22;3952;48.364;16.022;2023-09-19T01:11:11;18.80;99.90
7814;DHT22;3952;48.364;16.022;2023-09-19T01:13:50;18.70;99.90
7814;DHT22;3952;48.364;16.022;2023-09-19T01:16:32;18.70;99.90
7814;DHT22;3952;48.364;16.022;2023-09-19T01:19:12;18.60;99.90
7814;DHT22;3952;48.364;16.022;2023-09-19T01:21:53;18.60;99.90
7814;DHT22;3952;48.364;16.022;2023-09-19T01:24:49;18.50;99.90
7814;DHT22;3952;48.364;16.022;2023-09-19T01:27:42;18.50;99.90
7814;DHT22;3952;48.364;16.022;2023-09-19T01:30:21;18.40;99.90
7814;DHT22;3952;48.364;16.022;2023-09-19T01:32:53;18.30;99.90
7814;DHT22;3952;48.364;16.022;2023-09-19T01:35:21;18.30;99.90
7814;DHT22;3952;48.364;16.022;2023-09-19T01:37:48;18.30;99.90
7814;DHT22;3952;48.364;16.022;2023-09-19T01:40:17;18.20;99.90
7814;DHT22;3952;48.364;16.022;2023-09-19T01:42:54;18.20;99.90
7814;DHT22;3952;48.364;16.022;2023-09-19T01:45:31;18.10;99.90
7814;DHT22;3952;48.364;16.022;2023-09-19T01:48:09;18.10;99.90
7814;DHT22;3952;48.364;16.022;2023-09-19T01:50:43;18.00;99.90
7814;DHT22;3952;48.364;16.022;2023-09-19T01:53:19;18.00;99.90
7814;DHT22;3952;48.364;16.022;2023-09-19T01:55:50;18.00;99.90
7814;DHT22;3952;48.364;16.022;2023-09-19T01:58:23;18.00;99.90
7814;DHT22;3952;48.364;16.022;2023-09-19T02:00:55;18.00;99.90
7814;DHT22;3952;48.364;16.022;2023-09-19T02:03:24;18.00;99.90
7814;DHT22;3952;48.364;16.022;2023-09-19T02:05:53;18.00;99.90
7814;DHT22;3952;48.364;16.022;2023-09-19T02:08:22;18.00;99.90
7814;DHT22;3952;48.364;16.022;2023-09-19T02:10:50;18.00;99.90
7814;DHT22;3952;48.364;16.022;2023-09-19T02:13:18;18.00;99.90
7814;DHT22;3952;48.364;16.022;2023-09-19T02:15:46;17.90;99.90
7814;DHT22;3952;48.364;16.022;2023-09-19T02:18:14;17.90;99.90
7814;DHT22;3952;48.364;16.022;2023-09-19T02:20:43;17.90;99.90
7814;DHT22;3952;48.364;16.022;2023-09-19T02:23:10;17.90;99.90
7814;DHT22;3952;48.364;16.022;2023-09-19T02:25:38;17.90;99.90
7814;DHT22;3952;48.364;16.022;2023-09-19T02:28:06;17.90;99.90
7814;DHT22;3952;48.364;16.022;2023-09-19T02:30:34;17.90;99.90
7814;DHT22;3952;48.364;16.022;2023-09-19T02:33:03;18.00;99.90
7814;DHT22;3952;48.364;16.022;2023-09-19T02:35:32;18.00;99.90
7814;DHT22;3952;48.364;16.022;2023-09-19T02:38:02;18.00;99.90
7814;DHT22;3952;48.364;16.022;2023-09-19T02:40:31;18.00;99.90
7814;DHT22;3952;48.364;16.022;2023-09-19T02:43:01;18.00;99.90
7814;DHT22;3952;48.364;16.022;2023-09-19T02:45:29;17.90;99.90
7814;DHT22;3952;48.364;16.022;2023-09-19T02:47:57;17.90;99.90
7814;DHT22;3952;48.364;16.022;2023-09-19T02:50:24;17.90;99.90
7814;DHT22;3952;48.364;16.022;2023-09-19T02:52:52;17.90;99.90
7814;DHT22;3952;48.364;16.022;2023-09-19T02:55:20;17.90;99.90
7814;DHT22;3952;48.364;16.022;2023-09-19T02:57:48;17.90;99.90
7814;DHT22;3952;48.364;16.022;2023-09-19T03:00:17;17.80;99.90
7814;DHT22;3952;48.364;16.022;2023-09-19T03:02:47;17.80;99.90
7814;DHT22;3952;48.364;16.022;2023-09-19T03:05:14;17.80;99.90
7814;DHT22;3952;48.364;16.022;2023-09-19T03:07:42;17.80;99.90
7814;DHT22;3952;48.364;16.022;2023-09-19T03:10:13;17.80;99.90
7814;DHT22;3952;48.364;16.022;2023-09-19T03:12:41;17.80;99.90
7814;DHT22;3952;48.364;16.022;2023-09-19T03:15:09;17.80;99.90
7814;DHT22;3952;48.364;16.022;2023-09-19T03:17:37;17.80;99.90
7814;DHT22;3952;48.364;16.022;2023-09-19T03:20:05;17.80;99.90
7814;DHT22;3952;48.364;16.022;2023-09-19T03:22:35;17.70;99.90
7814;DHT22;3952;48.364;16.022;2023-09-19T03:25:02;17.70;99.90
7814;DHT22;3952;48.364;16.022;2023-09-19T03:27:35;17.70;99.90
7814;DHT22;3952;48.364;16.022;2023-09-19T03:30:02;17.70;99.90
7814;DHT22;3952;48.364;16.022;2023-09-19T03:32:33;17.70;99.90
7814;DHT22;3952;48.364;16.022;2023-09-19T03:35:01;17.70;99.90
7814;DHT22;3952;48.364;16.022;2023-09-19T03:37:31;17.70;99.90
7814;DHT22;3952;48.364;16.022;2023-09-19T03:39:58;17.70;99.90
7814;DHT22;3952;48.364;16.022;2023-09-19T03:42:30;17.70;99.90
7814;DHT22;3952;48.364;16.022;2023-09-19T03:44:59;17.70;99.90
7814;DHT22;3952;48.364;16.022;2023-09-19T03:47:30;17.70;99.90
7814;DHT22;3952;48.364;16.022;2023-09-19T03:49:57;17.70;99.90
7814;DHT22;3952;48.364;16.022;2023-09-19T03:52:24;17.70;99.90
7814;DHT22;3952;48.364;16.022;2023-09-19T03:54:52;17.70;99.90
7814;DHT22;3952;48.364;16.022;2023-09-19T03:57:20;17.70;99.90
7814;DHT22;3952;48.364;16.022;2023-09-19T03:59:47;17.70;99.90
7814;DHT22;3952;48.364;16.022;2023-09-19T04:02:15;17.70;99.90
7814;DHT22;3952;48.364;16.022;2023-09-19T04:04:49;17.70;99.90
7814;DHT22;3952;48.364;16.022;2023-09-19T04:07:16;17.70;99.90
7814;DHT22;3952;48.364;16.022;2023-09-19T04:09:44;17.70;99.90
7814;DHT22;3952;48.364;16.022;2023-09-19T04:12:12;17.70;99.90
7814;DHT22;3952;48.364;16.022;2023-09-19T04:14:42;17.70;99.90
7814;DHT22;3952;48.364;16.022;2023-09-19T04:17:09;17.70;99.90
7814;DHT22;3952;48.364;16.022;2023-09-19T04:19:38;17.60;99.90
7814;DHT22;3952;48.364;16.022;2023-09-19T04:22:06;17.60;99.90
7814;DHT22;3952;48.364;16.022;2023-09-19T04:24:34;17.60;99.90
7814;DHT22;3952;48.364;16.022;2023-09-19T04:27:01;17.60;99.90
7814;DHT22;3952;48.364;16.022;2023-09-19T04:29:28;17.60;99.90
7814;DHT22;3952;48.364;16.022;2023-09-19T04:31:56;17.60;99.90
7814;DHT22;3952;48.364;16.022;2023-09-19T04:34:23;17.60;99.90
7814;DHT22;3952;48.364;16.022;2023-09-19T04:36:52;17.60;99.90
7814;DHT22;3952;48.364;16.022;2023-09-19T04:39:19;17.60;99.90
7814;DHT22;3952;48.364;16.022;2023-09-19T04:41:46;17.60;99.90
7814;DHT22;3952;48.364;16.022;2023-09-19T04:44:14;17.60;99.90
7814;DHT22;3952;48.364;16.022;2023-09-19T04:46:41;17.60;99.90
7814;DHT22;3952;48.364;16.022;2023-09-19T04:49:08;17.60;99.90
7814;DHT22;3952;48.364;16.022;2023-09-19T04:51:36;17.60;99.90
7814;DHT22;3952;48.364;16.022;2023-09-19T04:54:05;17.60;99.90
7814;DHT22;3952;48.364;16.022;2023-09-19T04:56:32;17.60;99.90
7814;DHT22;3952;48.364;16.022;2023-09-19T04:59:00;17.50;99.90
7814;DHT22;3952;48.364;16.022;2023-09-19T05:01:27;17.50;99.90
7814;DHT22;3952;48.364;16.022;2023-09-19T05:03:54;17.50;99.90
7814;DHT22;3952;48.364;16.022;2023-09-19T05:06:21;17.50;99.90
7814;DHT22;3952;48.364;16.022;2023-09-19T05:08:49;17.60;99.90
7814;DHT22;3952;48.364;16.022;2023-09-19T05:11:19;17.60;99.90
7814;DHT22;3952;48.364;16.022;2023-09-19T05:13:47;17.50;99.90
7814;DHT22;3952;48.364;16.022;2023-09-19T05:16:16;17.50;99.90
7814;DHT22;3952;48.364;16.022;2023-09-19T05:18:43;17.50;99.90
7814;DHT22;3952;48.364;16.022;2023-09-19T05:21:10;17.50;99.90
7814;DHT22;3952;48.364;16.022;2023-09-19T05:23:38;17.60;99.90
7814;DHT22;3952;48.364;16.022;2023-09-19T05:26:05;17.60;99.90
7814;DHT22;3952;48.364;16.022;2023-09-19T05:28:34;17.50;99.90
7814;DHT22;3952;48.364;16.022;2023-09-19T05:31:01;17.50;99.90
7814;DHT22;3952;48.364;16.022;2023-09-19T05:33:29;17.50;99.90
7814;DHT22;3952;48.364;16.022;2023-09-19T05:35:56;17.50;99.90
7814;DHT22;3952;48.364;16.022;2023-09-19T05:38:24;17.50;99.90
7814;DHT22;3952;48.364;16.022;2023-09-19T05:40:52;17.50;99.90
7814;DHT22;3952;48.364;16.022;2023-09-19T05:43:19;17.50;99.90
7814;DHT22;3952;48.364;16.022;2023-09-19T05:45:48;17.60;99.90
7814;DHT22;3952;48.364;16.022;2023-09-19T05:48:18;17.60;99.90
7814;DHT22;3952;48.364;16.022;2023-09-19T05:50:46;17.60;99.90
7814;DHT22;3952;48.364;16.022;2023-09-19T05:53:14;17.60;99.90
7814;DHT22;3952;48.364;16.022;2023-09-19T05:55:42;17.60;99.90
7814;DHT22;3952;48.364;16.022;2023-09-19T05:58:09;17.60;99.90
7814;DHT22;3952;48.364;16.022;2023-09-19T06:00:39;17.60;99.90
7814;DHT22;3952;48.364;16.022;2023-09-19T06:03:10;17.60;99.90
7814;DHT22;3952;48.364;16.022;2023-09-19T06:05:39;17.60;99.90
7814;DHT22;3952;48.364;16.022;2023-09-19T06:08:07;17.60;99.90
7814;DHT22;3952;48.364;16.022;2023-09-19T06:10:35;17.60;99.90
7814;DHT22;3952;48.364;16.022;2023-09-19T06:13:02;17.60;99.90
7814;DHT22;3952;48.364;16.022;2023-09-19T06:15:32;17.70;99.90
7814;DHT22;3952;48.364;16.022;2023-09-19T06:18:01;17.70;99.90
7814;DHT22;3952;48.364;16.022;2023-09-19T06:20:32;17.70;99.90
7814;DHT22;3952;48.364;16.022;2023-09-19T06:22:59;17.70;99.90
7814;DHT22;3952;48.364;16.022;2023-09-19T06:25:27;17.70;99.90
7814;DHT22;3952;48.364;16.022;2023-09-19T06:27:54;17.70;99.90
7814;DHT22;3952;48.364;16.022;2023-09-19T06:30:23;17.70;99.90
7814;DHT22;3952;48.364;16.022;2023-09-19T06:32:56;17.80;99.90
7814;DHT22;3952;48.364;16.022;2023-09-19T06:35:24;17.70;99.90
7814;DHT22;3952;48.364;16.022;2023-09-19T06:37:53;17.70;99.90
7814;DHT22;3952;48.364;16.022;2023-09-19T06:40:23;17.70;99.90
7814;DHT22;3952;48.364;16.022;2023-09-19T06:42:51;17.70;99.90
7814;DHT22;3952;48.364;16.022;2023-09-19T06:45:19;17.70;99.90
7814;DHT22;3952;48.364;16.022;2023-09-19T06:47:48;17.80;99.90
7814;DHT22;3952;48.364;16.022;2023-09-19T06:50:16;17.80;99.90
7814;DHT22;3952;48.364;16.022;2023-09-19T06:52:45;17.80;99.90
7814;DHT22;3952;48.364;16.022;2023-09-19T06:55:18;17.80;99.90
7814;DHT22;3952;48.364;16.022;2023-09-19T06:57:45;17.80;99.90
7814;DHT22;3952;48.364;16.022;2023-09-19T07:00:14;17.80;99.90
7814;DHT22;3952;48.364;16.022;2023-09-19T07:02:44;17.80;99.90
7814;DHT22;3952;48.364;16.022;2023-09-19T07:05:11;17.90;99.90
7814;DHT22;3952;48.364;16.022;2023-09-19T07:07:38;17.80;99.90
7814;DHT22;3952;48.364;16.022;2023-09-19T07:10:06;17.90;99.90
7814;DHT22;3952;48.364;16.022;2023-09-19T07:12:38;17.90;99.90
7814;DHT22;3952;48.364;16.022;2023-09-19T07:15:07;17.90;99.90
7814;DHT22;3952;48.364;16.022;2023-09-19T07:17:35;17.90;99.90
7814;DHT22;3952;48.364;16.022;2023-09-19T07:20:02;18.00;99.90
7814;DHT22;3952;48.364;16.022;2023-09-19T07:22:33;18.00;99.90
7814;DHT22;3952;48.364;16.022;2023-09-19T07:25:00;18.00;99.90
7814;DHT22;3952;48.364;16.022;2023-09-19T07:27:28;18.10;99.90
7814;DHT22;3952;48.364;16.022;2023-09-19T07:29:56;18.10;99.90
7814;DHT22;3952;48.364;16.022;2023-09-19T07:32:24;18.10;99.90
7814;DHT22;3952;48.364;16.022;2023-09-19T07:34:52;18.10;99.90
7814;DHT22;3952;48.364;16.022;2023-09-19T07:37:20;18.20;99.90
7814;DHT22;3952;48.364;16.022;2023-09-19T07:39:51;18.20;99.90
7814;DHT22;3952;48.364;16.022;2023-09-19T07:42:18;18.10;99.90
7814;DHT22;3952;48.364;16.022;2023-09-19T07:44:45;18.30;99.90
7814;DHT22;3952;48.364;16.022;2023-09-19T07:47:17;18.40;99.90
7814;DHT22;3952;48.364;16.022;2023-09-19T07:49:46;18.40;99.90
7814;DHT22;3952;48.364;16.022;2023-09-19T07:52:13;18.40;99.90
7814;DHT22;3952;48.364;16.022;2023-09-19T07:54:41;18.50;99.90
7814;DHT22;3952;48.364;16.022;2023-09-19T07:57:10;18.50;99.90
7814;DHT22;3952;48.364;16.022;2023-09-19T07:59:37;18.60;99.90
7814;DHT22;3952;48.364;16.022;2023-09-19T08:02:08;18.70;99.90
7814;DHT22;3952;48.364;16.022;2023-09-19T08:04:42;18.70;99.90
7814;DHT22;3952;48.364;16.022;2023-09-19T08:07:11;18.80;99.90
7814;DHT22;3952;48.364;16.022;2023-09-19T08:09:38;18.80;99.90
7814;DHT22;3952;48.364;16.022;2023-09-19T08:12:06;18.90;99.90
7814;DHT22;3952;48.364;16.022;2023-09-19T08:14:36;19.00;99.90
7814;DHT22;3952;48.364;16.022;2023-09-19T08:17:03;19.10;99.90
7814;DHT22;3952;48.364;16.022;2023-09-19T08:19:31;19.20;99.90
7814;DHT22;3952;48.364;16.022;2023-09-19T08:22:00;19.30;99.90
7814;DHT22;3952;48.364;16.022;2023-09-19T08:24:29;19.50;99.90
7814;DHT22;3952;48.364;16.022;2023-09-19T08:26:57;19.60;99.90
7814;DHT22;3952;48.364;16.022;2023-09-19T08:29:25;19.60;99.90
7814;DHT22;3952;48.364;16.022;2023-09-19T08:31:54;19.60;99.90
7814;DHT22;3952;48.364;16.022;2023-09-19T08:34:22;19.60;99.90
7814;DHT22;3952;48.364;16.022;2023-09-19T08:36:51;19.60;99.90
7814;DHT22;3952;48.364;16.022;2023-09-19T08:39:19;19.60;99.90
7814;DHT22;3952;48.364;16.022;2023-09-19T08:41:47;19.50;99.90
7814;DHT22;3952;48.364;16.022;2023-09-19T08:44:14;19.50;99.90
7814;DHT22;3952;48.364;16.022;2023-09-19T08:46:42;19.40;99.90
7814;DHT22;3952;48.364;16.022;2023-09-19T08:49:33;19.40;99.90
7814;DHT22;3952;48.364;16.022;2023-09-19T08:52:08;19.40;99.90
7814;DHT22;3952;48.364;16.022;2023-09-19T08:54:40;19.40;99.90
7814;DHT22;3952;48.364;16.022;2023-09-19T08:57:10;19.40;99.90
7814;DHT22;3952;48.364;16.022;2023-09-19T08:59:38;19.40;99.90
7814;DHT22;3952;48.364;16.022;2023-09-19T09:02:11;19.30;99.90
7814;DHT22;3952;48.364;16.022;2023-09-19T09:04:40;19.40;99.90
7814;DHT22;3952;48.364;16.022;2023-09-19T09:07:10;19.40;99.90
7814;DHT22;3952;48.364;16.022;2023-09-19T09:09:40;19.40;99.90
7814;DHT22;3952;48.364;16.022;2023-09-19T09:12:10;19.50;99.90
7814;DHT22;3952;48.364;16.022;2023-09-19T09:14:39;19.60;99.90
7814;DHT22;3952;48.364;16.022;2023-09-19T09:17:07;19.70;99.90
7814;DHT22;3952;48.364;16.022;2023-09-19T09:19:35;19.80;99.90
7814;DHT22;3952;48.364;16.022;2023-09-19T09:22:07;20.00;99.90
7814;DHT22;3952;48.364;16.022;2023-09-19T09:24:34;20.20;99.90
7814;DHT22;3952;48.364;16.022;2023-09-19T09:27:06;20.30;99.90
7814;DHT22;3952;48.364;16.022;2023-09-19T09:29:43;20.50;99.90
7814;DHT22;3952;48.364;16.022;2023-09-19T09:32:19;20.70;99.90
7814;DHT22;3952;48.364;16.022;2023-09-19T09:34:49;20.70;99.90
7814;DHT22;3952;48.364;16.022;2023-09-19T09:37:17;20.80;99.90
7814;DHT22;3952;48.364;16.022;2023-09-19T09:39:52;20.80;99.90
7814;DHT22;3952;48.364;16.022;2023-09-19T09:42:33;20.90;99.90
7814;DHT22;3952;48.364;16.022;2023-09-19T09:45:18;20.90;99.90
7814;DHT22;3952;48.364;16.022;2023-09-19T09:47:54;21.00;99.90
7814;DHT22;3952;48.364;16.022;2023-09-19T09:50:29;21.10;99.90
7814;DHT22;3952;48.364;16.022;2023-09-19T09:53:21;21.30;99.90
7814;DHT22;3952;48.364;16.022;2023-09-19T09:56:01;21.50;99.90
7814;DHT22;3952;48.364;16.022;2023-09-19T09:58:33;21.70;99.90
7814;DHT22;3952;48.364;16.022;2023-09-19T10:01:04;21.80;99.90
7814;DHT22;3952;48.364;16.022;2023-09-19T10:03:42;22.00;99.90
7814;DHT22;3952;48.364;16.022;2023-09-19T10:06:11;22.30;99.90
7814;DHT22;3952;48.364;16.022;2023-09-19T10:09:01;22.60;99.90
7814;DHT22;3952;48.364;16.022;2023-09-19T10:11:43;22.90;99.90
7814;DHT22;3952;48.364;16.022;2023-09-19T10:14:14;23.20;99.90
7814;DHT22;3952;48.364;16.022;2023-09-19T10:16:46;23.50;99.90
7814;DHT22;3952;48.364;16.022;2023-09-19T10:19:19;23.60;99.90
7814;DHT22;3952;48.364;16.022;2023-09-19T10:21:50;23.70;99.90
7814;DHT22;3952;48.364;16.022;2023-09-19T10:24:18;23.80;99.90
7814;DHT22;3952;48.364;16.022;2023-09-19T10:26:46;23.90;99.90
7814;DHT22;3952;48.364;16.022;2023-09-19T10:29:18;24.10;99.90
7814;DHT22;3952;48.364;16.022;2023-09-19T10:31:47;24.10;99.90
7814;DHT22;3952;48.364;16.022;2023-09-19T10:34:17;24.10;99.90
7814;DHT22;3952;48.364;16.022;2023-09-19T10:36:45;24.30;99.90
7814;DHT22;3952;48.364;16.022;2023-09-19T10:39:15;24.40;99.90
7814;DHT22;3952;48.364;16.022;2023-09-19T10:41:50;24.30;99.90
7814;DHT22;3952;48.364;16.022;2023-09-19T10:44:26;24.20;99.90
7814;DHT22;3952;48.364;16.022;2023-09-19T10:46:54;24.10;99.90
7814;DHT22;3952;48.364;16.022;2023-09-19T10:49:22;23.90;99.90
7814;DHT22;3952;48.364;16.022;2023-09-19T10:51:54;23.70;99.90
7814;DHT22;3952;48.364;16.022;2023-09-19T10:54:27;23.50;99.90
7814;DHT22;3952;48.364;16.022;2023-09-19T10:56:56;23.40;99.90
7814;DHT22;3952;48.364;16.022;2023-09-19T10:59:26;23.30;99.90
7814;DHT22;3952;48.364;16.022;2023-09-19T11:02:16;23.40;99.90
7814;DHT22;3952;48.364;16.022;2023-09-19T11:04:44;23.60;99.90
7814;DHT22;3952;48.364;16.022;2023-09-19T11:07:14;23.90;99.90
7814;DHT22;3952;48.364;16.022;2023-09-19T11:09:49;24.10;99.90
7814;DHT22;3952;48.364;16.022;2023-09-19T11:12:49;24.40;99.90
7814;DHT22;3952;48.364;16.022;2023-09-19T11:18:53;24.60;99.90
7814;DHT22;3952;48.364;16.022;2023-09-19T11:21:52;24.50;99.90
7814;DHT22;3952;48.364;16.022;2023-09-19T11:24:30;24.60;99.90
7814;DHT22;3952;48.364;16.022;2023-09-19T11:27:11;24.70;99.90
7814;DHT22;3952;48.364;16.022;2023-09-19T11:29:40;24.70;99.90
7814;DHT22;3952;48.364;16.022;2023-09-19T11:32:07;24.80;99.90
7814;DHT22;3952;48.364;16.022;2023-09-19T11:34:41;24.80;99.90
7814;DHT22;3952;48.364;16.022;2023-09-19T11:40:28;24.60;99.90
7814;DHT22;3952;48.364;16.022;2023-09-19T11:42:56;24.60;99.90
7814;DHT22;3952;48.364;16.022;2023-09-19T11:48:29;24.40;99.90
7814;DHT22;3952;48.364;16.022;2023-09-19T11:51:00;24.50;99.90
7814;DHT22;3952;48.364;16.022;2023-09-19T11:53:33;24.40;99.90
7814;DHT22;3952;48.364;16.022;2023-09-19T11:56:04;24.30;99.90
7814;DHT22;3952;48.364;16.022;2023-09-19T11:58:37;24.30;99.90
7814;DHT22;3952;48.364;16.022;2023-09-19T12:01:05;24.20;99.90
7814;DHT22;3952;48.364;16.022;2023-09-19T12:03:42;24.10;99.90
7814;DHT22;3952;48.364;16.022;2023-09-19T12:06:13;24.00;99.90
7814;DHT22;3952;48.364;16.022;2023-09-19T12:08:41;23.90;99.90
7814;DHT22;3952;48.364;16.022;2023-09-19T12:11:13;24.00;99.90
7814;DHT22;3952;48.364;16.022;2023-09-19T12:13:45;24.20;99.90
7814;DHT22;3952;48.364;16.022;2023-09-19T12:16:15;24.30;99.90
7814;DHT22;3952;48.364;16.022;2023-09-19T12:18:43;24.40;99.90
7814;DHT22;3952;48.364;16.022;2023-09-19T12:21:24;24.40;99.90
7814;DHT22;3952;48.364;16.022;2023-09-19T12:24:03;24.60;99.90
7814;DHT22;3952;48.364;16.022;2023-09-19T12:26:39;24.70;99.90
7814;DHT22;3952;48.364;16.022;2023-09-19T12:29:14;24.70;99.90
7814;DHT22;3952;48.364;16.022;2023-09-19T12:31:53;24.60;99.90
7814;DHT22;3952;48.364;16.022;2023-09-19T12:34:27;24.60;99.90
7814;DHT22;3952;48.364;16.022;2023-09-19T12:37:10;24.70;99.90
7814;DHT22;3952;48.364;16.022;2023-09-19T12:39:47;24.70;99.90
7814;DHT22;3952;48.364;16.022;2023-09-19T12:42:18;24.80;99.90
7814;DHT22;3952;48.364;16.022;2023-09-19T12:44:46;24.90;99.90
7814;DHT22;3952;48.364;16.022;2023-09-19T12:47:16;24.90;99.90
7814;DHT22;3952;48.364;16.022;2023-09-19T12:50:10;24.80;99.90
7814;DHT22;3952;48.364;16.022;2023-09-19T12:52:45;24.70;99.90
7814;DHT22;3952;48.364;16.022;2023-09-19T12:55:21;24.50;99.90
7814;DHT22;3952;48.364;16.022;2023-09-19T12:57:59;24.30;99.90
7814;DHT22;3952;48.364;16.022;2023-09-19T13:00:36;24.20;99.90
7814;DHT22;3952;48.364;16.022;2023-09-19T13:03:18;24.10;99.90
7814;DHT22;3952;48.364;16.022;2023-09-19T13:05:52;23.90;99.90
7814;DHT22;3952;48.364;16.022;2023-09-19T13:08:25;23.90;99.90
7814;DHT22;3952;48.364;16.022;2023-09-19T13:11:07;24.00;99.90
7814;DHT22;3952;48.364;16.022;2023-09-19T13:13:37;24.10;99.90
7814;DHT22;3952;48.364;16.022;2023-09-19T13:16:04;24.40;99.90
7814;DHT22;3952;48.364;16.022;2023-09-19T13:18:48;24.50;99.90
7814;DHT22;3952;48.364;16.022;2023-09-19T13:21:28;24.60;99.90
7814;DHT22;3952;48.364;16.022;2023-09-19T13:24:20;24.70;99.90
7814;DHT22;3952;48.364;16.022;2023-09-19T13:26:48;24.60;99.90
7814;DHT22;3952;48.364;16.022;2023-09-19T13:29:16;24.50;99.90
7814;DHT22;3952;48.364;16.022;2023-09-19T13:31:46;24.30;99.90
7814;DHT22;3952;48.364;16.022;2023-09-19T13:34:13;24.20;99.90
7814;DHT22;3952;48.364;16.022;2023-09-19T13:36:42;24.00;99.90
7814;DHT22;3952;48.364;16.022;2023-09-19T13:39:10;23.90;99.90
7814;DHT22;3952;48.364;16.022;2023-09-19T13:41:39;23.80;99.90
7814;DHT22;3952;48.364;16.022;2023-09-19T13:44:06;23.80;99.90
7814;DHT22;3952;48.364;16.022;2023-09-19T13:46:36;23.70;99.90
7814;DHT22;3952;48.364;16.022;2023-09-19T13:49:03;23.80;99.90
7814;DHT22;3952;48.364;16.022;2023-09-19T13:51:31;23.80;99.90
7814;DHT22;3952;48.364;16.022;2023-09-19T13:53:58;23.90;99.90
7814;DHT22;3952;48.364;16.022;2023-09-19T13:56:27;24.00;99.90
7814;DHT22;3952;48.364;16.022;2023-09-19T13:58:56;24.10;99.90
7814;DHT22;3952;48.364;16.022;2023-09-19T14:01:23;24.10;99.90
7814;DHT22;3952;48.364;16.022;2023-09-19T14:03:52;24.30;99.90
7814;DHT22;3952;48.364;16.022;2023-09-19T14:06:21;24.20;99.90
7814;DHT22;3952;48.364;16.022;2023-09-19T14:08:49;24.20;99.90
7814;DHT22;3952;48.364;16.022;2023-09-19T14:11:16;24.30;99.90
7814;DHT22;3952;48.364;16.022;2023-09-19T14:13:45;24.20;99.90
7814;DHT22;3952;48.364;16.022;2023-09-19T14:16:15;24.20;99.90
7814;DHT22;3952;48.364;16.022;2023-09-19T14:18:44;24.00;99.90
7814;DHT22;3952;48.364;16.022;2023-09-19T14:21:12;23.90;99.90
7814;DHT22;3952;48.364;16.022;2023-09-19T14:23:40;23.80;99.90
7814;DHT22;3952;48.364;16.022;2023-09-19T14:26:09;23.80;99.90
7814;DHT22;3952;48.364;16.022;2023-09-19T14:28:36;23.80;99.90
7814;DHT22;3952;48.364;16.022;2023-09-19T14:31:06;23.80;99.90
7814;DHT22;3952;48.364;16.022;2023-09-19T14:33:33;23.70;99.90
7814;DHT22;3952;48.364;16.022;2023-09-19T14:36:03;23.80;99.90
7814;DHT22;3952;48.364;16.022;2023-09-19T14:38:32;23.80;99.90
7814;DHT22;3952;48.364;16.022;2023-09-19T14:41:01;23.80;99.90
7814;DHT22;3952;48.364;16.022;2023-09-19T14:43:28;23.70;99.90
7814;DHT22;3952;48.364;16.022;2023-09-19T14:45:56;23.60;99.90
7814;DHT22;3952;48.364;16.022;2023-09-19T14:48:25;23.40;99.90
7814;DHT22;3952;48.364;16.022;2023-09-19T14:50:52;23.30;99.90
7814;DHT22;3952;48.364;16.022;2023-09-19T14:53:21;23.40;99.90
7814;DHT22;3952;48.364;16.022;2023-09-19T14:55:48;23.40;99.90
7814;DHT22;3952;48.364;16.022;2023-09-19T14:58:17;23.50;99.90
7814;DHT22;3952;48.364;16.022;2023-09-19T15:00:45;23.60;99.90
7814;DHT22;3952;48.364;16.022;2023-09-19T15:03:13;23.70;99.90
7814;DHT22;3952;48.364;16.022;2023-09-19T15:05:42;23.70;99.90
7814;DHT22;3952;48.364;16.022;2023-09-19T15:08:09;23.80;99.90
7814;DHT22;3952;48.364;16.022;2023-09-19T15:10:36;23.80;99.90
7814;DHT22;3952;48.364;16.022;2023-09-19T15:13:03;23.70;99.90
7814;DHT22;3952;48.364;16.022;2023-09-19T15:15:31;23.70;99.90
7814;DHT22;3952;48.364;16.022;2023-09-19T15:17:59;23.60;99.90
7814;DHT22;3952;48.364;16.022;2023-09-19T15:20:26;23.60;99.90
7814;DHT22;3952;48.364;16.022;2023-09-19T15:22:55;23.60;99.90
7814;DHT22;3952;48.364;16.022;2023-09-19T15:25:22;23.50;99.90
7814;DHT22;3952;48.364;16.022;2023-09-19T15:27:50;23.50;99.90
7814;DHT22;3952;48.364;16.022;2023-09-19T15:30:18;23.50;99.90
7814;DHT22;3952;48.364;16.022;2023-09-19T15:32:45;23.50;99.90
7814;DHT22;3952;48.364;16.022;2023-09-19T15:35:13;23.50;99.90
7814;DHT22;3952;48.364;16.022;2023-09-19T15:37:42;23.40;99.90
7814;DHT22;3952;48.364;16.022;2023-09-19T15:40:11;23.30;99.90
7814;DHT22;3952;48.364;16.022;2023-09-19T15:42:39;23.30;99.90
7814;DHT22;3952;48.364;16.022;2023-09-19T15:45:07;23.30;99.90
7814;DHT22;3952;48.364;16.022;2023-09-19T15:47:35;23.20;99.90
7814;DHT22;3952;48.364;16.022;2023-09-19T15:50:04;23.20;99.90
7814;DHT22;3952;48.364;16.022;2023-09-19T15:52:32;23.10;99.90
7814;DHT22;3952;48.364;16.022;2023-09-19T15:55:00;23.00;99.90
7814;DHT22;3952;48.364;16.022;2023-09-19T15:57:31;23.00;99.90
7814;DHT22;3952;48.364;16.022;2023-09-19T15:59:58;22.90;99.90
7814;DHT22;3952;48.364;16.022;2023-09-19T16:02:25;22.90;99.90
7814;DHT22;3952;48.364;16.022;2023-09-19T16:04:54;22.80;99.90
7814;DHT22;3952;48.364;16.022;2023-09-19T16:07:21;22.70;99.90
7814;DHT22;3952;48.364;16.022;2023-09-19T16:09:49;22.60;99.90
7814;DHT22;3952;48.364;16.022;2023-09-19T16:12:16;22.50;99.90
7814;DHT22;3952;48.364;16.022;2023-09-19T16:14:45;22.40;99.90